桃園國際機場 - ATIS

METAR RCTP 011600Z 04021KT 9999 FEW006 BKN008 BKN018 18/17 Q1020 WS ALL RWY NOSIG RMK A3014=

站台狀態:Online
最後更新:2022-12-02 00:00:01